createdAt,value
2022-09-07T00:00:58.170Z,21.65
2022-09-07T00:03:26.001Z,21.69
2022-09-07T00:05:53.269Z,21.70
2022-09-07T00:08:21.654Z,21.67
2022-09-07T00:10:55.401Z,21.32
2022-09-07T00:13:23.229Z,21.39
2022-09-07T00:15:50.946Z,21.26
2022-09-07T00:18:18.370Z,21.29
2022-09-07T00:20:45.568Z,21.40
2022-09-07T00:23:13.262Z,21.45
2022-09-07T00:25:40.806Z,21.30
2022-09-07T00:28:08.549Z,21.23
2022-09-07T00:30:40.955Z,21.30
2022-09-07T00:33:08.313Z,21.29
2022-09-07T00:35:41.990Z,21.11
2022-09-07T00:38:09.233Z,21.04
2022-09-07T00:40:36.740Z,20.88
2022-09-07T00:43:04.435Z,21.05
2022-09-07T00:45:31.988Z,21.23
2022-09-07T00:48:01.947Z,21.31
2022-09-07T00:50:31.452Z,21.36
2022-09-07T00:53:06.142Z,21.13
2022-09-07T00:55:33.742Z,21.26
2022-09-07T00:58:00.985Z,21.31
2022-09-07T01:00:29.377Z,21.12
2022-09-07T01:02:58.736Z,21.28
2022-09-07T01:05:28.180Z,21.10
2022-09-07T01:07:56.366Z,20.92
2022-09-07T01:10:25.719Z,21.01
2022-09-07T01:12:52.987Z,21.11
2022-09-07T01:15:20.832Z,21.08
2022-09-07T01:17:56.978Z,21.16
2022-09-07T01:20:36.818Z,21.07
2022-09-07T01:23:23.727Z,20.98
2022-09-07T01:26:06.253Z,20.89
2022-09-07T01:28:34.481Z,20.92
2022-09-07T01:31:05.462Z,20.85
2022-09-07T01:33:38.849Z,20.66
2022-09-07T01:36:21.099Z,20.57
2022-09-07T01:38:50.415Z,20.82
2022-09-07T01:41:18.790Z,20.76
2022-09-07T01:43:54.661Z,20.70
2022-09-07T01:46:35.755Z,20.73
2022-09-07T01:49:10.368Z,20.70
2022-09-07T01:51:38.988Z,20.54
2022-09-07T01:54:08.309Z,20.47
2022-09-07T01:56:36.806Z,20.68
2022-09-07T01:59:05.023Z,20.36
2022-09-07T02:01:34.817Z,20.47
2022-09-07T02:04:07.390Z,20.68
2022-09-07T02:06:46.619Z,20.58
2022-09-07T02:09:32.842Z,20.13
2022-09-07T02:12:03.036Z,20.30
2022-09-07T02:14:34.134Z,20.42
2022-09-07T02:17:03.762Z,20.44
2022-09-07T02:19:33.916Z,20.28
2022-09-07T02:22:02.971Z,20.37
2022-09-07T02:24:32.056Z,20.33
2022-09-07T02:27:03.472Z,20.52
2022-09-07T02:29:31.186Z,20.34
2022-09-07T02:31:58.373Z,20.21
2022-09-07T02:34:25.589Z,20.15
2022-09-07T02:36:53.223Z,20.39
2022-09-07T02:39:20.423Z,20.26
2022-09-07T02:41:47.655Z,20.36
2022-09-07T02:44:16.565Z,20.14
2022-09-07T02:46:52.998Z,20.21
2022-09-07T02:49:25.360Z,20.21
2022-09-07T02:51:59.524Z,20.21
2022-09-07T02:54:39.385Z,20.31
2022-09-07T02:57:25.832Z,20.24
2022-09-07T02:59:59.522Z,20.24
2022-09-07T03:02:26.674Z,20.35
2022-09-07T03:05:26.815Z,19.91
2022-09-07T03:07:54.022Z,20.11
2022-09-07T03:10:21.659Z,20.31
2022-09-07T03:12:49.544Z,20.33
2022-09-07T03:15:18.389Z,20.35
2022-09-07T03:17:46.233Z,20.27
2022-09-07T03:20:13.599Z,20.28
2022-09-07T03:22:41.238Z,20.05
2022-09-07T03:25:10.317Z,20.22
2022-09-07T03:27:37.577Z,20.11
2022-09-07T03:30:05.521Z,20.22
2022-09-07T03:32:54.871Z,20.22
2022-09-07T03:35:24.553Z,20.25
2022-09-07T03:37:52.506Z,20.06
2022-09-07T03:40:21.854Z,20.02
2022-09-07T03:42:50.171Z,20.03
2022-09-07T03:45:17.817Z,20.07
2022-09-07T03:47:45.127Z,19.85
2022-09-07T03:50:12.460Z,19.98
2022-09-07T03:52:41.081Z,20.05
2022-09-07T03:55:08.626Z,20.03
2022-09-07T03:57:36.847Z,19.87
2022-09-07T04:00:04.853Z,20.03
2022-09-07T04:02:39.814Z,20.06
2022-09-07T04:05:08.221Z,20.03
2022-09-07T04:07:35.520Z,19.87
2022-09-07T04:10:02.876Z,20.06
2022-09-07T04:12:30.964Z,20.26
2022-09-07T04:14:58.145Z,20.15
2022-09-07T04:17:25.348Z,20.11
2022-09-07T04:19:52.858Z,20.01
2022-09-07T04:22:20.060Z,20.00
2022-09-07T04:24:47.265Z,19.72
2022-09-07T04:27:14.710Z,19.93
2022-09-07T04:29:41.953Z,19.92
2022-09-07T04:32:12.370Z,20.00
2022-09-07T04:34:42.612Z,19.88
2022-09-07T04:37:09.963Z,20.20
2022-09-07T04:39:37.426Z,20.11
2022-09-07T04:42:04.979Z,19.56
2022-09-07T04:44:32.154Z,19.80
2022-09-07T04:46:59.333Z,20.04
2022-09-07T04:49:26.789Z,20.21
2022-09-07T04:51:54.018Z,19.90
2022-09-07T04:54:21.227Z,20.16
2022-09-07T04:56:48.677Z,20.08
2022-09-07T04:59:15.843Z,20.25
2022-09-07T05:01:43.126Z,20.40
2022-09-07T05:04:11.077Z,20.41
2022-09-07T05:06:38.457Z,20.35
2022-09-07T05:09:05.624Z,20.25
2022-09-07T05:11:33.161Z,20.18
2022-09-07T05:14:01.763Z,20.33
2022-09-07T05:16:29.572Z,20.29
2022-09-07T05:18:57.994Z,20.49
2022-09-07T05:21:26.112Z,20.51
2022-09-07T05:23:53.783Z,20.35
2022-09-07T05:26:22.605Z,20.56
2022-09-07T05:28:50.440Z,20.71
2022-09-07T05:31:19.514Z,20.82
2022-09-07T05:36:36.106Z,20.65
2022-09-07T05:39:03.821Z,20.87
2022-09-07T05:41:31.067Z,21.06
2022-09-07T05:46:47.241Z,20.96
2022-09-07T05:49:14.419Z,21.18
2022-09-07T05:51:41.635Z,21.25
2022-09-07T05:54:10.646Z,21.22
2022-09-07T05:56:38.600Z,21.33
2022-09-07T05:59:05.816Z,21.46
2022-09-07T06:01:35.352Z,21.44
2022-09-07T06:04:05.497Z,21.53
2022-09-07T06:06:32.859Z,21.52
2022-09-07T06:09:00.224Z,21.72
2022-09-07T06:11:27.779Z,21.83
2022-09-07T06:13:55.147Z,21.61
2022-09-07T06:16:22.871Z,21.68
2022-09-07T06:18:50.466Z,21.95
2022-09-07T06:21:22.200Z,21.91
2022-09-07T06:23:49.950Z,22.08
2022-09-07T06:26:17.801Z,22.06
2022-09-07T06:28:49.095Z,21.90
2022-09-07T06:31:18.989Z,22.26
2022-09-07T06:33:47.679Z,22.44
2022-09-07T06:36:16.000Z,22.57
2022-09-07T06:38:43.826Z,22.57
2022-09-07T06:44:01.738Z,22.58
2022-09-07T06:49:16.520Z,22.64
2022-09-07T06:51:43.712Z,22.87
2022-09-07T06:56:58.616Z,23.21
2022-09-07T06:59:25.894Z,23.55
2022-09-07T07:01:53.101Z,23.83
2022-09-07T07:04:20.680Z,24.14
2022-09-07T07:06:47.961Z,24.38
2022-09-07T07:09:15.264Z,24.67
2022-09-07T07:11:44.719Z,24.99
2022-09-07T07:14:15.470Z,25.29
2022-09-07T07:16:43.208Z,25.57
2022-09-07T07:19:10.535Z,25.85
2022-09-07T07:22:01.963Z,25.93
2022-09-07T07:24:25.380Z,26.18
2022-09-07T07:26:52.720Z,26.53
2022-09-07T07:29:22.872Z,26.75
2022-09-07T07:31:52.581Z,26.48
2022-09-07T07:34:20.085Z,26.63
2022-09-07T07:36:47.655Z,26.98
2022-09-07T07:42:03.387Z,27.12
2022-09-07T07:44:33.381Z,27.34
2022-09-07T07:47:00.530Z,27.04
2022-09-07T07:49:27.761Z,27.07
2022-09-07T07:54:43.164Z,27.66
2022-09-07T07:57:10.667Z,27.61
2022-09-07T07:59:38.027Z,27.55
2022-09-07T08:02:06.161Z,27.99
2022-09-07T08:04:34.152Z,27.99
2022-09-07T08:07:05.546Z,28.18
2022-09-07T08:09:38.184Z,28.04
2022-09-07T08:12:05.377Z,28.16
2022-09-07T08:14:32.509Z,28.08
2022-09-07T08:17:00.294Z,28.28
2022-09-07T08:19:27.969Z,28.21
2022-09-07T08:21:55.203Z,28.49
2022-09-07T08:24:22.605Z,28.53
2022-09-07T08:26:49.726Z,28.67
2022-09-07T08:29:17.500Z,28.76
2022-09-07T08:31:45.014Z,29.04
2022-09-07T08:34:12.199Z,29.04
2022-09-07T08:36:39.323Z,29.00
2022-09-07T08:39:06.718Z,29.35
2022-09-07T08:41:52.622Z,29.43
2022-09-07T08:44:38.672Z,29.36
2022-09-07T08:47:15.219Z,29.27
2022-09-07T08:49:50.106Z,28.94
2022-09-07T08:52:25.395Z,28.96
2022-09-07T08:55:05.655Z,28.81
2022-09-07T08:57:33.667Z,28.97
2022-09-07T09:00:05.070Z,29.18
2022-09-07T09:02:36.502Z,29.24
2022-09-07T09:05:17.416Z,29.11
2022-09-07T09:08:11.491Z,29.33
2022-09-07T09:10:53.543Z,29.48
2022-09-07T09:13:40.902Z,29.59
2022-09-07T09:16:10.447Z,29.43
2022-09-07T09:18:49.688Z,29.83
2022-09-07T09:21:18.751Z,29.85
2022-09-07T09:23:46.748Z,29.83
2022-09-07T09:26:18.417Z,29.99
2022-09-07T09:28:45.806Z,29.48
2022-09-07T09:31:15.673Z,29.96
2022-09-07T09:33:42.876Z,29.61
2022-09-07T09:36:23.690Z,29.44
2022-09-07T09:38:50.822Z,29.77
2022-09-07T09:41:18.212Z,30.11
2022-09-07T09:43:48.842Z,29.88
2022-09-07T09:46:36.414Z,30.08
2022-09-07T09:49:05.512Z,29.98
2022-09-07T09:54:24.890Z,30.21
2022-09-07T09:56:52.244Z,30.54
2022-09-07T10:05:32.274Z,30.31
2022-09-07T10:07:59.640Z,30.11
2022-09-07T10:10:28.023Z,29.97
2022-09-07T10:12:55.862Z,30.22
2022-09-07T10:15:30.210Z,30.75
2022-09-07T10:17:58.247Z,30.58
2022-09-07T10:20:31.981Z,30.91
2022-09-07T10:22:59.727Z,30.78
2022-09-07T10:25:30.064Z,30.77
2022-09-07T10:28:03.041Z,30.96
2022-09-07T10:30:33.018Z,31.10
2022-09-07T10:33:06.557Z,31.26
2022-09-07T10:35:34.810Z,30.78
2022-09-07T10:38:02.019Z,30.95
2022-09-07T10:40:31.784Z,31.03
2022-09-07T10:43:22.294Z,30.49
2022-09-07T10:45:49.588Z,30.84
2022-09-07T10:48:37.361Z,31.01
2022-09-07T10:51:13.712Z,31.12
2022-09-07T10:54:29.351Z,31.45
2022-09-07T10:56:47.749Z,31.34
2022-09-07T10:59:17.982Z,31.53
2022-09-07T11:01:51.728Z,31.26
2022-09-07T11:04:26.493Z,31.56
2022-09-07T11:06:55.643Z,31.60
2022-09-07T11:09:48.505Z,31.69
2022-09-07T11:12:19.282Z,31.35
2022-09-07T11:14:47.323Z,31.64
2022-09-07T11:17:18.121Z,31.48
2022-09-07T11:19:47.522Z,31.69
2022-09-07T11:22:20.109Z,31.65
2022-09-07T11:25:29.158Z,31.68
2022-09-07T11:27:39.085Z,31.34
2022-09-07T11:30:12.782Z,31.59
2022-09-07T11:32:42.349Z,31.29
2022-09-07T11:35:12.772Z,31.59
2022-09-07T11:37:42.335Z,31.33
2022-09-07T11:40:12.667Z,30.89
2022-09-07T11:42:50.516Z,31.08
2022-09-07T11:45:25.626Z,31.43
2022-09-07T11:47:57.910Z,31.48
2022-09-07T11:50:25.395Z,31.46
2022-09-07T11:52:57.723Z,31.60
2022-09-07T11:55:27.492Z,31.28
2022-09-07T11:58:00.196Z,30.80
2022-09-07T12:00:31.514Z,30.59
2022-09-07T12:03:06.925Z,31.17
2022-09-07T12:05:50.160Z,30.96
2022-09-07T12:08:29.456Z,31.24
2022-09-07T12:11:15.035Z,31.59
2022-09-07T12:13:53.280Z,31.53
2022-09-07T12:16:23.579Z,30.59
2022-09-07T12:18:50.946Z,30.80
2022-09-07T12:21:36.850Z,31.25
2022-09-07T12:24:04.370Z,31.17
2022-09-07T12:26:34.840Z,31.39
2022-09-07T12:29:01.935Z,31.36
2022-09-07T12:31:57.413Z,31.00
2022-09-07T12:34:48.442Z,31.33
2022-09-07T12:37:15.758Z,30.69
2022-09-07T12:39:45.377Z,30.41
2022-09-07T12:45:19.798Z,30.72
2022-09-07T12:47:54.129Z,31.12
2022-09-07T12:53:14.319Z,30.71
2022-09-07T12:58:36.777Z,30.30
2022-09-07T13:01:22.685Z,30.53
2022-09-07T13:04:08.567Z,30.07
2022-09-07T13:09:34.991Z,30.43
2022-09-07T13:12:04.922Z,30.66
2022-09-07T13:14:34.498Z,30.80
2022-09-07T13:17:21.142Z,30.67
2022-09-07T13:20:01.200Z,30.15
2022-09-07T13:22:37.896Z,29.86
2022-09-07T13:25:21.950Z,30.20
2022-09-07T13:27:53.063Z,30.36
2022-09-07T13:30:29.225Z,29.89
2022-09-07T13:33:19.885Z,30.10
2022-09-07T13:35:48.219Z,30.62
2022-09-07T13:38:15.382Z,30.85
2022-09-07T13:40:44.985Z,30.89
2022-09-07T13:43:16.547Z,30.99
2022-09-07T13:45:46.882Z,30.69
2022-09-07T13:48:20.219Z,30.69
2022-09-07T13:51:03.555Z,30.82
2022-09-07T13:53:34.370Z,30.66
2022-09-07T13:56:01.399Z,30.39
2022-09-07T13:58:41.332Z,30.53
2022-09-07T14:01:16.249Z,30.75
2022-09-07T14:03:47.988Z,31.01
2022-09-07T14:06:21.033Z,30.71
2022-09-07T14:08:52.429Z,31.10
2022-09-07T14:11:23.376Z,30.73
2022-09-07T14:14:08.594Z,30.53
2022-09-07T14:16:35.883Z,30.57
2022-09-07T14:19:09.465Z,30.57
2022-09-07T14:21:36.744Z,30.39
2022-09-07T14:24:05.476Z,30.61
2022-09-07T14:26:32.830Z,30.48
2022-09-07T14:29:01.545Z,30.74
2022-09-07T14:31:29.058Z,30.46
2022-09-07T14:33:57.176Z,30.34
2022-09-07T14:36:44.564Z,30.19
2022-09-07T14:39:13.565Z,30.34
2022-09-07T14:41:41.991Z,30.09
2022-09-07T14:44:35.589Z,29.98
2022-09-07T14:47:04.205Z,30.26
2022-09-07T14:49:31.526Z,30.21
2022-09-07T14:52:00.758Z,30.24
2022-09-07T14:54:30.797Z,30.06
2022-09-07T14:57:01.107Z,30.19
2022-09-07T14:59:39.163Z,30.28
2022-09-07T15:02:18.106Z,30.22
2022-09-07T15:04:46.075Z,30.23
2022-09-07T15:07:29.262Z,30.38
2022-09-07T15:09:56.706Z,30.49
2022-09-07T15:12:36.467Z,30.49
2022-09-07T15:15:10.563Z,29.91
2022-09-07T15:17:45.278Z,30.24
2022-09-07T15:20:30.530Z,30.39
2022-09-07T15:22:58.017Z,30.55
2022-09-07T15:25:25.802Z,30.57
2022-09-07T15:27:53.979Z,30.63
2022-09-07T15:30:21.130Z,30.31
2022-09-07T15:32:49.344Z,30.23
2022-09-07T15:35:16.715Z,30.27
2022-09-07T15:40:38.025Z,30.38
2022-09-07T15:43:16.423Z,30.19
2022-09-07T15:45:47.517Z,29.97
2022-09-07T15:48:15.311Z,30.09
2022-09-07T15:50:42.447Z,30.09
2022-09-07T15:54:07.493Z,30.01
2022-09-07T15:55:57.123Z,29.94
2022-09-07T15:58:25.181Z,29.85
2022-09-07T16:01:51.463Z,29.81
2022-09-07T16:03:39.911Z,29.84
2022-09-07T16:06:13.786Z,29.90
2022-09-07T16:08:42.082Z,29.89
2022-09-07T16:11:18.000Z,29.96
2022-09-07T16:13:46.926Z,29.84
2022-09-07T16:16:18.926Z,29.83
2022-09-07T16:18:47.200Z,29.76
2022-09-07T16:21:14.785Z,29.81
2022-09-07T16:23:43.212Z,29.77
2022-09-07T16:26:11.025Z,29.76
2022-09-07T16:28:40.019Z,29.66
2022-09-07T16:31:08.858Z,29.63
2022-09-07T16:33:37.203Z,29.64
2022-09-07T16:36:09.151Z,29.60
2022-09-07T16:38:44.804Z,29.47
2022-09-07T16:41:23.319Z,29.54
2022-09-07T16:43:50.719Z,29.53
2022-09-07T16:46:18.700Z,29.39
2022-09-07T16:48:48.087Z,29.41
2022-09-07T16:51:19.387Z,29.37
2022-09-07T16:53:46.785Z,29.32
2022-09-07T16:56:16.548Z,29.26
2022-09-07T16:58:47.094Z,29.19
2022-09-07T17:01:16.548Z,29.12
2022-09-07T17:03:44.128Z,28.94
2022-09-07T17:06:12.099Z,28.83
2022-09-07T17:08:39.762Z,28.60
2022-09-07T17:11:08.502Z,28.70
2022-09-07T17:13:36.369Z,28.64
2022-09-07T17:16:07.938Z,28.64
2022-09-07T17:21:22.870Z,28.22
2022-09-07T17:23:55.107Z,28.17
2022-09-07T17:26:26.038Z,28.02
2022-09-07T17:28:54.461Z,28.07
2022-09-07T17:34:13.728Z,27.72
2022-09-07T17:36:40.914Z,27.57
2022-09-07T17:39:17.683Z,27.60
2022-09-07T17:41:46.383Z,27.37
2022-09-07T17:44:13.535Z,27.36
2022-09-07T17:46:40.775Z,27.49
2022-09-07T17:49:13.948Z,27.30
2022-09-07T17:51:41.434Z,27.41
2022-09-07T17:54:11.626Z,27.28
2022-09-07T17:56:40.018Z,27.16
2022-09-07T18:01:55.798Z,26.86
2022-09-07T18:04:23.763Z,26.83
2022-09-07T18:06:51.235Z,26.60
2022-09-07T18:09:20.097Z,26.50
2022-09-07T18:11:49.419Z,26.67
2022-09-07T18:14:17.880Z,26.59
2022-09-07T18:16:45.934Z,26.76
2022-09-07T18:19:14.055Z,26.57
2022-09-07T18:21:43.280Z,26.46
2022-09-07T18:24:13.877Z,26.51
2022-09-07T18:26:41.516Z,26.63
2022-09-07T18:29:25.878Z,26.49
2022-09-07T18:31:55.832Z,26.12
2022-09-07T18:34:23.644Z,26.32
2022-09-07T18:36:51.142Z,26.29
2022-09-07T18:39:19.134Z,26.26
2022-09-07T18:41:47.423Z,26.28
2022-09-07T18:47:03.242Z,26.10
2022-09-07T18:49:41.214Z,26.13
2022-09-07T18:55:35.245Z,26.14
2022-09-07T18:58:03.464Z,26.22
2022-09-07T19:00:31.641Z,26.02
2022-09-07T19:02:59.717Z,26.00
2022-09-07T19:08:15.559Z,26.05
2022-09-07T19:11:06.991Z,25.88
2022-09-07T19:13:37.808Z,25.83
2022-09-07T19:16:16.635Z,25.63
2022-09-07T19:18:49.504Z,25.51
2022-09-07T19:21:29.285Z,25.51
2022-09-07T19:23:57.871Z,25.38
2022-09-07T19:26:26.306Z,25.59
2022-09-07T19:28:55.212Z,25.35
2022-09-07T19:31:22.936Z,25.58
2022-09-07T19:33:54.750Z,25.41
2022-09-07T19:36:22.958Z,25.30
2022-09-07T19:41:57.011Z,25.31
2022-09-07T19:48:16.545Z,25.51
2022-09-07T19:51:04.569Z,25.49
2022-09-07T19:53:34.683Z,25.52
2022-09-07T19:56:12.000Z,25.52
2022-09-07T19:58:40.814Z,25.41
2022-09-07T20:01:08.649Z,25.43
2022-09-07T20:03:38.669Z,25.52
2022-09-07T20:06:10.653Z,25.46
2022-09-07T20:08:38.502Z,25.35
2022-09-07T20:11:08.673Z,25.37
2022-09-07T20:13:37.250Z,25.42
2022-09-07T20:16:05.665Z,25.35
2022-09-07T20:18:34.894Z,25.28
2022-09-07T20:21:05.468Z,25.21
2022-09-07T20:23:33.622Z,25.26
2022-09-07T20:26:08.047Z,25.20
2022-09-07T20:28:36.863Z,25.39
2022-09-07T20:31:08.234Z,25.05
2022-09-07T20:33:35.961Z,24.99
2022-09-07T20:36:03.693Z,24.89
2022-09-07T20:38:30.950Z,24.77
2022-09-07T20:40:59.214Z,24.71
2022-09-07T20:43:26.436Z,24.61
2022-09-07T20:45:57.252Z,24.72
2022-09-07T20:48:24.802Z,24.64
2022-09-07T20:51:00.272Z,24.59
2022-09-07T20:53:27.772Z,24.54
2022-09-07T20:56:02.887Z,24.47
2022-09-07T20:58:30.877Z,24.45
2022-09-07T21:00:58.122Z,24.56
2022-09-07T21:03:25.541Z,24.47
2022-09-07T21:05:52.926Z,24.61
2022-09-07T21:08:20.253Z,24.46
2022-09-07T21:10:47.538Z,24.50
2022-09-07T21:13:16.341Z,24.46
2022-09-07T21:15:44.112Z,24.25
2022-09-07T21:18:16.386Z,24.31
2022-09-07T21:20:56.920Z,24.23
2022-09-07T21:23:31.629Z,24.32
2022-09-07T21:25:59.006Z,24.15
2022-09-07T21:28:26.579Z,24.32
2022-09-07T21:30:56.885Z,24.21
2022-09-07T21:33:24.871Z,24.19
2022-09-07T21:35:53.071Z,24.19
2022-09-07T21:38:21.139Z,24.10
2022-09-07T21:40:48.759Z,24.01
2022-09-07T21:43:16.393Z,24.08
2022-09-07T21:45:43.520Z,23.81
2022-09-07T21:48:10.961Z,23.88
2022-09-07T21:50:38.108Z,23.84
2022-09-07T21:53:06.244Z,23.99
2022-09-07T21:55:34.368Z,23.96
2022-09-07T21:58:01.541Z,23.71
2022-09-07T22:00:28.658Z,23.79
2022-09-07T22:02:56.090Z,23.89
2022-09-07T22:05:23.783Z,23.65
2022-09-07T22:07:51.183Z,23.70
2022-09-07T22:10:18.580Z,23.70
2022-09-07T22:12:45.794Z,23.54
2022-09-07T22:15:12.950Z,23.76
2022-09-07T22:17:43.335Z,23.63
2022-09-07T22:20:13.317Z,23.74
2022-09-07T22:22:40.716Z,23.67
2022-09-07T22:25:08.080Z,23.64
2022-09-07T22:27:35.244Z,23.78
2022-09-07T22:30:02.635Z,23.69
2022-09-07T22:32:29.806Z,23.58
2022-09-07T22:34:56.946Z,23.64
2022-09-07T22:37:24.718Z,23.52
2022-09-07T22:39:52.001Z,23.28
2022-09-07T22:42:19.196Z,23.35
2022-09-07T22:44:47.578Z,23.50
2022-09-07T22:47:15.633Z,23.39
2022-09-07T22:49:42.772Z,23.25
2022-09-07T22:52:10.215Z,23.32
2022-09-07T22:54:37.365Z,23.32
2022-09-07T22:57:04.520Z,23.38
2022-09-07T22:59:31.919Z,23.18
2022-09-07T23:01:59.051Z,23.25
2022-09-07T23:04:29.825Z,23.07
2022-09-07T23:06:59.078Z,23.26
2022-09-07T23:09:26.850Z,23.12
2022-09-07T23:11:54.190Z,23.07
2022-09-07T23:14:24.560Z,22.99
2022-09-07T23:16:51.674Z,23.08
2022-09-07T23:19:20.540Z,23.18
2022-09-07T23:21:48.018Z,23.08
2022-09-07T23:24:16.118Z,23.10
2022-09-07T23:26:43.821Z,23.08
2022-09-07T23:29:11.718Z,23.05
2022-09-07T23:31:40.246Z,22.67
2022-09-07T23:34:07.820Z,22.82
2022-09-07T23:36:35.263Z,22.72
2022-09-07T23:39:02.428Z,22.96
2022-09-07T23:41:30.265Z,22.79
2022-09-07T23:43:57.998Z,22.90
2022-09-07T23:46:25.202Z,22.88
2022-09-07T23:48:52.375Z,22.83
2022-09-07T23:51:24.257Z,22.67
2022-09-07T23:53:52.459Z,22.79
2022-09-07T23:56:20.191Z,22.60
2022-09-07T23:58:48.199Z,22.65
